createdAt,value
2019-02-06T00:00:00.000Z,99916
2019-02-06T00:05:00.000Z,99923
2019-02-06T00:10:00.000Z,99928
2019-02-06T00:15:00.000Z,99913
2019-02-06T00:20:00.000Z,99920
2019-02-06T00:25:00.000Z,99927
2019-02-06T00:30:00.000Z,99918
2019-02-06T00:35:00.000Z,99923
2019-02-06T00:40:00.000Z,99919
2019-02-06T00:45:00.000Z,99926
2019-02-06T00:50:00.000Z,99914
2019-02-06T00:55:00.000Z,99913
2019-02-06T01:00:00.000Z,99909
2019-02-06T01:05:00.000Z,99911
2019-02-06T01:10:00.000Z,99910
2019-02-06T01:15:00.000Z,99926
2019-02-06T01:20:00.000Z,99919
2019-02-06T01:25:00.000Z,99920
2019-02-06T01:30:00.000Z,99906
2019-02-06T01:35:00.000Z,99909
2019-02-06T01:40:00.000Z,99910
2019-02-06T01:45:00.000Z,99900
2019-02-06T01:50:00.000Z,99913
2019-02-06T01:55:00.000Z,99904
2019-02-06T02:00:00.000Z,99911
2019-02-06T02:05:00.000Z,99911
2019-02-06T02:11:00.000Z,99903
2019-02-06T02:16:00.000Z,99914
2019-02-06T02:21:00.000Z,99903
2019-02-06T02:26:00.000Z,99907
2019-02-06T02:31:00.000Z,99914
2019-02-06T02:36:00.000Z,99909
2019-02-06T02:41:00.000Z,99919
2019-02-06T02:46:00.000Z,99912
2019-02-06T02:51:00.000Z,99911
2019-02-06T02:56:00.000Z,99911
2019-02-06T03:01:00.000Z,99918
2019-02-06T03:06:00.000Z,99904
2019-02-06T03:11:00.000Z,99909
2019-02-06T03:16:00.000Z,99909
2019-02-06T03:21:00.000Z,99919
2019-02-06T03:26:00.000Z,99924
2019-02-06T03:31:00.000Z,99937
2019-02-06T03:36:00.000Z,99940
2019-02-06T03:41:00.000Z,99952
2019-02-06T03:46:00.000Z,99948
2019-02-06T03:51:00.000Z,99955
2019-02-06T03:56:00.000Z,99959
2019-02-06T04:01:00.000Z,99969
2019-02-06T04:06:00.000Z,99977
2019-02-06T04:12:00.000Z,99977
2019-02-06T04:17:00.000Z,99980
2019-02-06T04:22:00.000Z,99985
2019-02-06T04:27:00.000Z,99984
2019-02-06T04:32:00.000Z,99978
2019-02-06T04:37:00.000Z,99981
2019-02-06T04:42:00.000Z,99979
2019-02-06T04:47:00.000Z,99974
2019-02-06T04:52:00.000Z,99974
2019-02-06T04:57:00.000Z,99979
2019-02-06T05:02:00.000Z,99981
2019-02-06T05:07:00.000Z,99988
2019-02-06T05:12:00.000Z,99986
2019-02-06T05:17:00.000Z,99992
2019-02-06T05:22:00.000Z,99993
2019-02-06T05:27:00.000Z,99993
2019-02-06T05:32:00.000Z,100000
2019-02-06T05:37:00.000Z,99994
2019-02-06T05:42:00.000Z,99991
2019-02-06T05:47:00.000Z,99995
2019-02-06T05:52:00.000Z,100000
2019-02-06T05:57:00.000Z,99994
2019-02-06T06:02:00.000Z,100012
2019-02-06T06:07:00.000Z,100008
2019-02-06T06:12:00.000Z,100015
2019-02-06T06:17:00.000Z,100013
2019-02-06T06:22:00.000Z,100019
2019-02-06T06:27:00.000Z,100026
2019-02-06T06:32:00.000Z,100038
2019-02-06T06:37:00.000Z,100046
2019-02-06T06:43:00.000Z,100074
2019-02-06T06:48:00.000Z,100061
2019-02-06T06:53:00.000Z,100073
2019-02-06T06:58:00.000Z,100071
2019-02-06T07:03:00.000Z,100078
2019-02-06T07:08:00.000Z,100066
2019-02-06T07:13:00.000Z,100070
2019-02-06T07:18:00.000Z,100079
2019-02-06T07:23:00.000Z,100073
2019-02-06T07:28:00.000Z,100074
2019-02-06T07:33:00.000Z,100080
2019-02-06T07:38:00.000Z,100084
2019-02-06T07:43:00.000Z,100083
2019-02-06T07:48:00.000Z,100088
2019-02-06T07:53:00.000Z,100084
2019-02-06T07:58:00.000Z,100078
2019-02-06T08:03:00.000Z,100078
2019-02-06T08:08:00.000Z,100094
2019-02-06T08:13:00.000Z,100090
2019-02-06T08:18:00.000Z,100095
2019-02-06T08:23:00.000Z,100094
2019-02-06T08:28:00.000Z,100091
2019-02-06T08:33:00.000Z,100103
2019-02-06T08:38:00.000Z,100094
2019-02-06T08:43:00.000Z,100094
2019-02-06T08:48:00.000Z,100102
2019-02-06T08:53:00.000Z,100088
2019-02-06T08:58:00.000Z,100097
2019-02-06T09:03:00.000Z,100104
2019-02-06T09:08:00.000Z,100112
2019-02-06T09:14:00.000Z,100101
2019-02-06T09:19:00.000Z,100113
2019-02-06T09:24:00.000Z,100108
2019-02-06T09:29:00.000Z,100109
2019-02-06T09:34:00.000Z,100108
2019-02-06T09:39:00.000Z,100107
2019-02-06T09:44:00.000Z,100103
2019-02-06T09:49:00.000Z,100113
2019-02-06T09:54:00.000Z,100109
2019-02-06T09:59:00.000Z,100110
2019-02-06T10:04:00.000Z,100116
2019-02-06T10:09:00.000Z,100115
2019-02-06T10:14:00.000Z,100098
2019-02-06T10:19:00.000Z,100097
2019-02-06T10:24:00.000Z,100100
2019-02-06T10:29:00.000Z,100082
2019-02-06T10:34:00.000Z,100076
2019-02-06T10:39:00.000Z,100073
2019-02-06T10:44:00.000Z,100063
2019-02-06T10:49:00.000Z,100053
2019-02-06T10:54:00.000Z,100051
2019-02-06T10:59:00.000Z,100037
2019-02-06T11:04:00.000Z,100031
2019-02-06T11:09:00.000Z,100020
2019-02-06T11:14:00.000Z,100019
2019-02-06T11:19:00.000Z,100017
2019-02-06T11:24:00.000Z,100015
2019-02-06T11:29:00.000Z,100008
2019-02-06T11:34:00.000Z,99999
2019-02-06T11:39:00.000Z,99998
2019-02-06T11:44:00.000Z,99993
2019-02-06T11:49:00.000Z,99997
2019-02-06T11:55:00.000Z,99985
2019-02-06T12:00:00.000Z,99982
2019-02-06T12:05:00.000Z,99983
2019-02-06T12:10:00.000Z,99967
2019-02-06T12:15:00.000Z,99958
2019-02-06T12:20:00.000Z,99952
2019-02-06T12:25:00.000Z,99955
2019-02-06T12:30:00.000Z,99931
2019-02-06T12:35:00.000Z,99927
2019-02-06T12:40:00.000Z,99935
2019-02-06T12:45:00.000Z,99933
2019-02-06T12:50:00.000Z,99935
2019-02-06T12:55:00.000Z,99911
2019-02-06T13:00:00.000Z,99908
2019-02-06T13:05:00.000Z,99909
2019-02-06T13:10:00.000Z,99901
2019-02-06T13:15:00.000Z,99888
2019-02-06T13:20:00.000Z,99873
2019-02-06T13:25:00.000Z,99878
2019-02-06T13:30:00.000Z,99869
2019-02-06T13:35:00.000Z,99876
2019-02-06T13:40:00.000Z,99870
2019-02-06T13:45:00.000Z,99863
2019-02-06T13:50:00.000Z,99862
2019-02-06T13:55:00.000Z,99849
2019-02-06T14:00:00.000Z,99847
2019-02-06T14:05:00.000Z,99844
2019-02-06T14:10:00.000Z,99829
2019-02-06T14:16:00.000Z,99829
2019-02-06T14:21:00.000Z,99816
2019-02-06T14:26:00.000Z,99803
2019-02-06T14:31:00.000Z,99813
2019-02-06T14:36:00.000Z,99812
2019-02-06T14:41:00.000Z,99814
2019-02-06T14:46:00.000Z,99820
2019-02-06T14:51:00.000Z,99816
2019-02-06T14:56:00.000Z,99814
2019-02-06T15:01:00.000Z,99813
2019-02-06T15:06:00.000Z,99810
2019-02-06T15:11:00.000Z,99804
2019-02-06T15:16:00.000Z,99803
2019-02-06T15:21:00.000Z,99797
2019-02-06T15:26:00.000Z,99786
2019-02-06T15:31:00.000Z,99763
2019-02-06T15:36:00.000Z,99772
2019-02-06T15:41:00.000Z,99782
2019-02-06T15:46:00.000Z,99776
2019-02-06T15:51:00.000Z,99778
2019-02-06T15:56:00.000Z,99774
2019-02-06T16:01:00.000Z,99780
2019-02-06T16:06:00.000Z,99775
2019-02-06T16:11:00.000Z,99780
2019-02-06T16:16:00.000Z,99787
2019-02-06T16:21:00.000Z,99791
2019-02-06T16:26:00.000Z,99797
2019-02-06T16:31:00.000Z,99796
2019-02-06T16:36:00.000Z,99789
2019-02-06T16:41:00.000Z,99791
2019-02-06T16:46:00.000Z,99782
2019-02-06T16:51:00.000Z,99794
2019-02-06T16:56:00.000Z,99795
2019-02-06T17:02:00.000Z,99797
2019-02-06T17:07:00.000Z,99803
2019-02-06T17:12:00.000Z,99784
2019-02-06T17:17:00.000Z,99780
2019-02-06T17:22:00.000Z,99775
2019-02-06T17:27:00.000Z,99782
2019-02-06T17:32:00.000Z,99794
2019-02-06T17:37:00.000Z,99781
2019-02-06T17:42:00.000Z,99780
2019-02-06T17:47:00.000Z,99782
2019-02-06T17:52:00.000Z,99779
2019-02-06T17:57:00.000Z,99781
2019-02-06T18:02:00.000Z,99799
2019-02-06T18:07:00.000Z,99796
2019-02-06T18:12:00.000Z,99789
2019-02-06T18:17:00.000Z,99788
2019-02-06T18:22:00.000Z,99790
2019-02-06T18:27:00.000Z,99788
2019-02-06T18:32:00.000Z,99793
2019-02-06T18:37:00.000Z,99790
2019-02-06T18:42:00.000Z,99775
2019-02-06T18:47:00.000Z,99779
2019-02-06T18:52:00.000Z,99765
2019-02-06T18:57:00.000Z,99759
2019-02-06T19:02:00.000Z,99761
2019-02-06T19:07:00.000Z,99752
2019-02-06T19:12:00.000Z,99747
2019-02-06T19:17:00.000Z,99739
2019-02-06T19:22:00.000Z,99750
2019-02-06T19:27:00.000Z,99752
2019-02-06T19:32:00.000Z,99744
2019-02-06T19:37:00.000Z,99737
2019-02-06T19:42:00.000Z,99731
2019-02-06T19:48:00.000Z,99732
2019-02-06T19:53:00.000Z,99718
2019-02-06T19:58:00.000Z,99720
2019-02-06T20:03:00.000Z,99725
2019-02-06T20:08:00.000Z,99728
2019-02-06T20:13:00.000Z,99723
2019-02-06T20:18:00.000Z,99716
2019-02-06T20:23:00.000Z,99714
2019-02-06T20:28:00.000Z,99715
2019-02-06T20:33:00.000Z,99718
2019-02-06T20:38:00.000Z,99710
2019-02-06T20:43:00.000Z,99711
2019-02-06T20:48:00.000Z,99703
2019-02-06T20:53:00.000Z,99690
2019-02-06T20:58:00.000Z,99681
2019-02-06T21:03:00.000Z,99673
2019-02-06T21:08:00.000Z,99674
2019-02-06T21:13:00.000Z,99669
2019-02-06T21:18:00.000Z,99667
2019-02-06T21:23:00.000Z,99652
2019-02-06T21:28:00.000Z,99664
2019-02-06T21:33:00.000Z,99653
2019-02-06T21:38:00.000Z,99651
2019-02-06T21:43:00.000Z,99647
2019-02-06T21:48:00.000Z,99647
2019-02-06T21:53:00.000Z,99643
2019-02-06T21:58:00.000Z,99644
2019-02-06T22:03:00.000Z,99642
2019-02-06T22:08:00.000Z,99637
2019-02-06T22:13:00.000Z,99625
2019-02-06T22:18:00.000Z,99628
2019-02-06T22:23:00.000Z,99614
2019-02-06T22:28:00.000Z,99611
2019-02-06T22:33:00.000Z,99616
2019-02-06T22:38:00.000Z,99620
2019-02-06T22:43:00.000Z,99614
2019-02-06T22:49:00.000Z,99611
2019-02-06T22:54:00.000Z,99613
2019-02-06T22:59:00.000Z,99608
2019-02-06T23:04:00.000Z,99588
2019-02-06T23:09:00.000Z,99588
2019-02-06T23:14:00.000Z,99592
2019-02-06T23:19:00.000Z,99571
2019-02-06T23:24:00.000Z,99576
2019-02-06T23:29:00.000Z,99548
2019-02-06T23:34:00.000Z,99556
2019-02-06T23:39:00.000Z,99554
2019-02-06T23:44:00.000Z,99535
2019-02-06T23:49:00.000Z,99536
2019-02-06T23:54:00.000Z,99540
2019-02-06T23:59:00.000Z,99520
